Portada
METAR-TAF:

METAR-TAF

Aeropuertos :

Aeropuerto de Badajoz

Badajoz, España

latitud: 38-53N, longitud: 006-49W, altitud: 185 m

Observación

El informe se hizo hace 3 horas y 49 minutos, a las 19:00 UTC
Viento 11 kt del oeste-noroeste, variando entre oeste y noroeste
Temperatura 24°C
Humedad 54%
Presión 1015 hPa
Visibilidad 10 km o más
Escasas nubes a una altura de 4900 ft

METAR: LEBZ 221900Z 29011KT 260V320 9999 FEW049 24/14 Q1015

Hora: 00:49 (22:49 UTC)

Pronóstico

El informe se hizo hace 2 horas y 49 minutos, a las 20:00 UTC
Pronóstico válido del 22 a las 21 UTC al 23 a las 21 UTC
Viento 9 kt del oeste
Visibilidad 10 km o más
Escasas nubes a una altura de 3000 ft
Probabilidad 30% :
Temporalmente
del 23 a las 03 UTC al 23 a las 08 UTC
Cielo nuboso a una altura de 1400 ft

TAF: LEBZ 222000Z 2221/2321 28009KT 9999 FEW030 TX27/2315Z TN15/2305Z PROB30 TEMPO 2303/2308 BKN014

Observaciones y pronósticos meteorológicos de más de 4000 aeropuertos (mensajes METAR y TAF).

Los puntos amarillos y rojos representan las estaciones disponibles.

Ponga el ratón en el punto deseado para ver el nombre de la estación.

Haga clic para ver las observaciones y los pronósticos meteorológicos.

Para cambiar el mapa : haga clic en los botones verdes con una cruz de color negro para hacer un zoom, en el botón verde con un guión para alejar o en las flechas verdes para mapas adyacentes.


METAR-TAF: